sensor_id;sensor_type;location;lat;lon;timestamp;P1;durP1;ratioP1;P2;durP2;ratioP2
75016;SDS011;63577;39.766;2.720;2023-03-13T00:01:48;5.90;;;2.80;;
75016;SDS011;63577;39.766;2.720;2023-03-13T00:04:14;6.10;;;2.00;;
75016;SDS011;63577;39.766;2.720;2023-03-13T00:06:39;4.60;;;1.90;;
75016;SDS011;63577;39.766;2.720;2023-03-13T00:09:09;4.10;;;1.60;;
75016;SDS011;63577;39.766;2.720;2023-03-13T00:11:34;3.60;;;1.50;;
75016;SDS011;63577;39.766;2.720;2023-03-13T00:14:01;3.30;;;1.20;;
75016;SDS011;63577;39.766;2.720;2023-03-13T00:16:26;3.40;;;1.20;;
75016;SDS011;63577;39.766;2.720;2023-03-13T00:18:53;4.80;;;1.20;;
75016;SDS011;63577;39.766;2.720;2023-03-13T00:21:19;3.40;;;1.10;;
75016;SDS011;63577;39.766;2.720;2023-03-13T00:23:45;3.10;;;1.00;;
75016;SDS011;63577;39.766;2.720;2023-03-13T00:26:12;3.40;;;1.20;;
75016;SDS011;63577;39.766;2.720;2023-03-13T00:28:38;3.80;;;1.40;;
75016;SDS011;63577;39.766;2.720;2023-03-13T00:33:39;6.00;;;2.60;;
75016;SDS011;63577;39.766;2.720;2023-03-13T00:36:09;5.50;;;2.50;;
75016;SDS011;63577;39.766;2.720;2023-03-13T00:38:35;4.50;;;2.00;;
75016;SDS011;63577;39.766;2.720;2023-03-13T00:41:10;5.60;;;2.10;;
75016;SDS011;63577;39.766;2.720;2023-03-13T00:43:39;3.50;;;1.50;;
75016;SDS011;63577;39.766;2.720;2023-03-13T00:46:05;4.80;;;1.70;;
75016;SDS011;63577;39.766;2.720;2023-03-13T00:48:30;4.60;;;1.70;;
75016;SDS011;63577;39.766;2.720;2023-03-13T00:50:57;3.50;;;1.30;;
75016;SDS011;63577;39.766;2.720;2023-03-13T00:53:22;3.30;;;1.40;;
75016;SDS011;63577;39.766;2.720;2023-03-13T00:58:19;3.50;;;1.40;;
75016;SDS011;63577;39.766;2.720;2023-03-13T01:00:44;4.60;;;1.20;;
75016;SDS011;63577;39.766;2.720;2023-03-13T01:03:10;3.40;;;1.20;;
75016;SDS011;63577;39.766;2.720;2023-03-13T01:05:35;2.80;;;1.20;;
75016;SDS011;63577;39.766;2.720;2023-03-13T01:08:00;3.00;;;1.20;;
75016;SDS011;63577;39.766;2.720;2023-03-13T01:10:26;3.80;;;1.20;;
75016;SDS011;63577;39.766;2.720;2023-03-13T01:12:51;3.40;;;1.40;;
75016;SDS011;63577;39.766;2.720;2023-03-13T01:15:17;3.50;;;1.30;;
75016;SDS011;63577;39.766;2.720;2023-03-13T01:17:44;3.60;;;1.30;;
75016;SDS011;63577;39.766;2.720;2023-03-13T01:20:09;3.10;;;1.20;;
75016;SDS011;63577;39.766;2.720;2023-03-13T01:22:35;4.40;;;1.30;;
75016;SDS011;63577;39.766;2.720;2023-03-13T01:25:01;3.70;;;1.70;;
75016;SDS011;63577;39.766;2.720;2023-03-13T01:27:26;4.00;;;1.30;;
75016;SDS011;63577;39.766;2.720;2023-03-13T01:29:52;4.50;;;1.20;;
75016;SDS011;63577;39.766;2.720;2023-03-13T01:32:18;3.90;;;1.20;;
75016;SDS011;63577;39.766;2.720;2023-03-13T01:34:43;3.40;;;1.30;;
75016;SDS011;63577;39.766;2.720;2023-03-13T01:37:09;4.10;;;1.50;;
75016;SDS011;63577;39.766;2.720;2023-03-13T01:39:34;4.40;;;1.40;;
75016;SDS011;63577;39.766;2.720;2023-03-13T01:41:59;3.90;;;1.20;;
75016;SDS011;63577;39.766;2.720;2023-03-13T01:44:25;4.00;;;1.30;;
75016;SDS011;63577;39.766;2.720;2023-03-13T01:46:51;4.00;;;1.20;;
75016;SDS011;63577;39.766;2.720;2023-03-13T01:49:26;5.00;;;1.80;;
75016;SDS011;63577;39.766;2.720;2023-03-13T01:52:03;3.80;;;1.30;;
75016;SDS011;63577;39.766;2.720;2023-03-13T01:59:30;3.80;;;1.50;;
75016;SDS011;63577;39.766;2.720;2023-03-13T02:01:58;4.50;;;2.00;;
75016;SDS011;63577;39.766;2.720;2023-03-13T02:04:25;6.40;;;2.10;;
75016;SDS011;63577;39.766;2.720;2023-03-13T02:06:52;5.40;;;2.30;;
75016;SDS011;63577;39.766;2.720;2023-03-13T02:09:18;22.20;;;8.50;;
75016;SDS011;63577;39.766;2.720;2023-03-13T02:11:52;23.00;;;7.70;;
75016;SDS011;63577;39.766;2.720;2023-03-13T02:14:19;15.40;;;5.90;;
75016;SDS011;63577;39.766;2.720;2023-03-13T02:16:45;12.00;;;4.70;;
75016;SDS011;63577;39.766;2.720;2023-03-13T02:19:17;13.00;;;4.30;;
75016;SDS011;63577;39.766;2.720;2023-03-13T02:21:49;12.90;;;4.20;;
75016;SDS011;63577;39.766;2.720;2023-03-13T02:26:45;6.80;;;2.50;;
75016;SDS011;63577;39.766;2.720;2023-03-13T02:29:10;9.00;;;2.50;;
75016;SDS011;63577;39.766;2.720;2023-03-13T02:31:46;6.30;;;2.00;;
75016;SDS011;63577;39.766;2.720;2023-03-13T02:34:12;4.40;;;1.70;;
75016;SDS011;63577;39.766;2.720;2023-03-13T02:36:39;4.50;;;1.60;;
75016;SDS011;63577;39.766;2.720;2023-03-13T02:39:05;3.40;;;1.40;;
75016;SDS011;63577;39.766;2.720;2023-03-13T02:41:31;3.70;;;1.60;;
75016;SDS011;63577;39.766;2.720;2023-03-13T02:43:57;6.50;;;1.90;;
75016;SDS011;63577;39.766;2.720;2023-03-13T02:46:22;6.80;;;2.50;;
75016;SDS011;63577;39.766;2.720;2023-03-13T02:48:49;6.80;;;2.80;;
75016;SDS011;63577;39.766;2.720;2023-03-13T02:53:49;7.50;;;2.20;;
75016;SDS011;63577;39.766;2.720;2023-03-13T02:56:16;8.20;;;2.30;;
75016;SDS011;63577;39.766;2.720;2023-03-13T02:58:42;8.10;;;2.80;;
75016;SDS011;63577;39.766;2.720;2023-03-13T03:01:08;9.70;;;3.10;;
75016;SDS011;63577;39.766;2.720;2023-03-13T03:03:34;6.30;;;2.50;;
75016;SDS011;63577;39.766;2.720;2023-03-13T03:06:03;5.90;;;2.20;;
75016;SDS011;63577;39.766;2.720;2023-03-13T03:08:29;5.40;;;1.80;;
75016;SDS011;63577;39.766;2.720;2023-03-13T03:10:55;4.30;;;1.20;;
75016;SDS011;63577;39.766;2.720;2023-03-13T03:13:20;5.50;;;1.50;;
75016;SDS011;63577;39.766;2.720;2023-03-13T03:15:45;4.10;;;2.00;;
75016;SDS011;63577;39.766;2.720;2023-03-13T03:18:11;5.20;;;1.80;;
75016;SDS011;63577;39.766;2.720;2023-03-13T03:20:36;4.70;;;1.40;;
75016;SDS011;63577;39.766;2.720;2023-03-13T03:23:01;4.70;;;1.70;;
75016;SDS011;63577;39.766;2.720;2023-03-13T03:25:27;3.90;;;1.60;;
75016;SDS011;63577;39.766;2.720;2023-03-13T03:27:52;4.50;;;1.30;;
75016;SDS011;63577;39.766;2.720;2023-03-13T03:30:18;4.30;;;1.60;;
75016;SDS011;63577;39.766;2.720;2023-03-13T03:32:44;3.70;;;1.20;;
75016;SDS011;63577;39.766;2.720;2023-03-13T03:35:09;4.70;;;1.80;;
75016;SDS011;63577;39.766;2.720;2023-03-13T03:37:34;4.30;;;1.40;;
75016;SDS011;63577;39.766;2.720;2023-03-13T03:39:59;6.70;;;2.10;;
75016;SDS011;63577;39.766;2.720;2023-03-13T03:42:25;6.40;;;2.20;;
75016;SDS011;63577;39.766;2.720;2023-03-13T03:44:50;5.80;;;2.20;;
75016;SDS011;63577;39.766;2.720;2023-03-13T03:47:15;4.60;;;1.70;;
75016;SDS011;63577;39.766;2.720;2023-03-13T03:49:41;3.80;;;1.30;;
75016;SDS011;63577;39.766;2.720;2023-03-13T03:52:06;4.20;;;1.20;;
75016;SDS011;63577;39.766;2.720;2023-03-13T03:54:32;3.70;;;1.40;;
75016;SDS011;63577;39.766;2.720;2023-03-13T03:56:57;3.70;;;1.20;;
75016;SDS011;63577;39.766;2.720;2023-03-13T03:59:22;3.30;;;1.20;;
75016;SDS011;63577;39.766;2.720;2023-03-13T04:01:47;3.30;;;1.20;;
75016;SDS011;63577;39.766;2.720;2023-03-13T04:04:13;3.20;;;1.20;;
75016;SDS011;63577;39.766;2.720;2023-03-13T04:06:38;4.30;;;1.20;;
75016;SDS011;63577;39.766;2.720;2023-03-13T04:09:03;3.20;;;1.40;;
75016;SDS011;63577;39.766;2.720;2023-03-13T04:11:29;3.20;;;1.30;;
75016;SDS011;63577;39.766;2.720;2023-03-13T04:13:54;3.70;;;1.20;;
75016;SDS011;63577;39.766;2.720;2023-03-13T04:16:19;3.00;;;1.00;;
75016;SDS011;63577;39.766;2.720;2023-03-13T04:18:45;3.30;;;1.20;;
75016;SDS011;63577;39.766;2.720;2023-03-13T04:21:10;2.90;;;1.10;;
75016;SDS011;63577;39.766;2.720;2023-03-13T04:23:36;3.00;;;1.00;;
75016;SDS011;63577;39.766;2.720;2023-03-13T04:26:01;2.70;;;1.00;;
75016;SDS011;63577;39.766;2.720;2023-03-13T04:28:27;2.70;;;1.10;;
75016;SDS011;63577;39.766;2.720;2023-03-13T04:30:52;3.30;;;1.30;;
75016;SDS011;63577;39.766;2.720;2023-03-13T04:33:21;3.50;;;1.30;;
75016;SDS011;63577;39.766;2.720;2023-03-13T04:35:47;4.00;;;1.30;;
75016;SDS011;63577;39.766;2.720;2023-03-13T04:38:12;3.30;;;1.00;;
75016;SDS011;63577;39.766;2.720;2023-03-13T04:40:37;2.80;;;1.10;;
75016;SDS011;63577;39.766;2.720;2023-03-13T04:43:03;3.20;;;1.20;;
75016;SDS011;63577;39.766;2.720;2023-03-13T04:45:28;4.40;;;1.20;;
75016;SDS011;63577;39.766;2.720;2023-03-13T04:47:53;3.60;;;1.10;;
75016;SDS011;63577;39.766;2.720;2023-03-13T04:50:19;3.20;;;0.90;;
75016;SDS011;63577;39.766;2.720;2023-03-13T04:52:44;2.90;;;1.00;;
75016;SDS011;63577;39.766;2.720;2023-03-13T04:55:09;3.40;;;1.20;;
75016;SDS011;63577;39.766;2.720;2023-03-13T04:57:35;3.30;;;1.20;;
75016;SDS011;63577;39.766;2.720;2023-03-13T05:00:00;3.00;;;1.10;;
75016;SDS011;63577;39.766;2.720;2023-03-13T05:02:25;2.50;;;0.90;;
75016;SDS011;63577;39.766;2.720;2023-03-13T05:04:51;3.60;;;0.90;;
75016;SDS011;63577;39.766;2.720;2023-03-13T05:07:16;2.70;;;1.00;;
75016;SDS011;63577;39.766;2.720;2023-03-13T05:09:41;3.20;;;1.30;;
75016;SDS011;63577;39.766;2.720;2023-03-13T05:12:07;2.70;;;1.00;;
75016;SDS011;63577;39.766;2.720;2023-03-13T05:14:32;2.20;;;0.80;;
75016;SDS011;63577;39.766;2.720;2023-03-13T05:16:58;3.30;;;1.00;;
75016;SDS011;63577;39.766;2.720;2023-03-13T05:19:23;3.40;;;0.90;;
75016;SDS011;63577;39.766;2.720;2023-03-13T05:21:48;2.30;;;0.80;;
75016;SDS011;63577;39.766;2.720;2023-03-13T05:24:14;2.60;;;0.90;;
75016;SDS011;63577;39.766;2.720;2023-03-13T05:26:39;2.40;;;0.90;;
75016;SDS011;63577;39.766;2.720;2023-03-13T05:29:04;3.00;;;0.90;;
75016;SDS011;63577;39.766;2.720;2023-03-13T05:31:30;3.00;;;0.90;;
75016;SDS011;63577;39.766;2.720;2023-03-13T05:33:55;2.60;;;0.90;;
75016;SDS011;63577;39.766;2.720;2023-03-13T05:36:20;2.40;;;0.90;;
75016;SDS011;63577;39.766;2.720;2023-03-13T05:38:46;2.50;;;0.80;;
75016;SDS011;63577;39.766;2.720;2023-03-13T05:41:11;2.30;;;0.80;;
75016;SDS011;63577;39.766;2.720;2023-03-13T05:43:36;1.90;;;0.70;;
75016;SDS011;63577;39.766;2.720;2023-03-13T05:46:02;2.00;;;0.70;;
75016;SDS011;63577;39.766;2.720;2023-03-13T05:48:27;2.60;;;0.70;;
75016;SDS011;63577;39.766;2.720;2023-03-13T05:50:52;2.70;;;0.80;;
75016;SDS011;63577;39.766;2.720;2023-03-13T05:53:18;4.70;;;1.00;;
75016;SDS011;63577;39.766;2.720;2023-03-13T05:55:43;2.30;;;1.00;;
75016;SDS011;63577;39.766;2.720;2023-03-13T05:58:08;3.10;;;0.80;;
75016;SDS011;63577;39.766;2.720;2023-03-13T06:00:34;2.50;;;0.80;;
75016;SDS011;63577;39.766;2.720;2023-03-13T06:02:59;2.90;;;0.90;;
75016;SDS011;63577;39.766;2.720;2023-03-13T06:05:25;2.40;;;0.80;;
75016;SDS011;63577;39.766;2.720;2023-03-13T06:07:50;3.10;;;0.90;;
75016;SDS011;63577;39.766;2.720;2023-03-13T06:10:16;3.10;;;0.90;;
75016;SDS011;63577;39.766;2.720;2023-03-13T06:12:41;2.40;;;0.80;;
75016;SDS011;63577;39.766;2.720;2023-03-13T06:15:06;2.50;;;0.80;;
75016;SDS011;63577;39.766;2.720;2023-03-13T06:17:33;3.50;;;0.80;;
75016;SDS011;63577;39.766;2.720;2023-03-13T06:19:59;2.60;;;0.90;;
75016;SDS011;63577;39.766;2.720;2023-03-13T06:22:24;3.00;;;0.80;;
75016;SDS011;63577;39.766;2.720;2023-03-13T06:24:50;4.70;;;1.00;;
75016;SDS011;63577;39.766;2.720;2023-03-13T06:27:15;4.10;;;1.00;;
75016;SDS011;63577;39.766;2.720;2023-03-13T06:29:41;3.30;;;1.40;;
75016;SDS011;63577;39.766;2.720;2023-03-13T06:32:06;5.80;;;2.20;;
75016;SDS011;63577;39.766;2.720;2023-03-13T06:34:32;4.90;;;2.10;;
75016;SDS011;63577;39.766;2.720;2023-03-13T06:36:57;5.10;;;3.00;;
75016;SDS011;63577;39.766;2.720;2023-03-13T06:39:24;5.00;;;2.20;;
75016;SDS011;63577;39.766;2.720;2023-03-13T06:41:50;3.80;;;1.70;;
75016;SDS011;63577;39.766;2.720;2023-03-13T06:44:15;5.50;;;1.50;;
75016;SDS011;63577;39.766;2.720;2023-03-13T06:46:40;3.70;;;1.50;;
75016;SDS011;63577;39.766;2.720;2023-03-13T06:49:06;3.60;;;1.30;;
75016;SDS011;63577;39.766;2.720;2023-03-13T06:51:31;4.50;;;2.00;;
75016;SDS011;63577;39.766;2.720;2023-03-13T06:53:57;4.80;;;2.50;;
75016;SDS011;63577;39.766;2.720;2023-03-13T06:56:22;4.40;;;1.50;;
75016;SDS011;63577;39.766;2.720;2023-03-13T06:58:48;4.10;;;1.60;;
75016;SDS011;63577;39.766;2.720;2023-03-13T07:01:14;4.50;;;1.40;;
75016;SDS011;63577;39.766;2.720;2023-03-13T07:03:40;4.20;;;1.20;;
75016;SDS011;63577;39.766;2.720;2023-03-13T07:06:05;3.10;;;1.00;;
75016;SDS011;63577;39.766;2.720;2023-03-13T07:08:31;2.60;;;0.90;;
75016;SDS011;63577;39.766;2.720;2023-03-13T07:10:58;2.80;;;0.80;;
75016;SDS011;63577;39.766;2.720;2023-03-13T07:13:24;2.40;;;0.90;;
75016;SDS011;63577;39.766;2.720;2023-03-13T07:15:49;3.70;;;0.80;;
75016;SDS011;63577;39.766;2.720;2023-03-13T07:18:15;3.20;;;1.00;;
75016;SDS011;63577;39.766;2.720;2023-03-13T07:20:40;2.70;;;1.00;;
75016;SDS011;63577;39.766;2.720;2023-03-13T07:23:06;2.70;;;0.90;;
75016;SDS011;63577;39.766;2.720;2023-03-13T07:25:31;2.30;;;0.80;;
75016;SDS011;63577;39.766;2.720;2023-03-13T07:27:56;2.30;;;0.90;;
75016;SDS011;63577;39.766;2.720;2023-03-13T07:30:22;2.90;;;1.10;;
75016;SDS011;63577;39.766;2.720;2023-03-13T07:32:47;2.40;;;0.90;;
75016;SDS011;63577;39.766;2.720;2023-03-13T07:35:13;2.90;;;1.10;;
75016;SDS011;63577;39.766;2.720;2023-03-13T07:37:38;4.40;;;1.00;;
75016;SDS011;63577;39.766;2.720;2023-03-13T07:40:03;3.00;;;1.20;;
75016;SDS011;63577;39.766;2.720;2023-03-13T07:42:29;4.30;;;1.40;;
75016;SDS011;63577;39.766;2.720;2023-03-13T07:44:55;3.10;;;1.00;;
75016;SDS011;63577;39.766;2.720;2023-03-13T07:47:20;2.90;;;1.10;;
75016;SDS011;63577;39.766;2.720;2023-03-13T07:49:45;3.30;;;1.30;;
75016;SDS011;63577;39.766;2.720;2023-03-13T07:52:11;3.40;;;1.40;;
75016;SDS011;63577;39.766;2.720;2023-03-13T07:54:36;4.30;;;1.30;;
75016;SDS011;63577;39.766;2.720;2023-03-13T07:57:02;3.10;;;1.40;;
75016;SDS011;63577;39.766;2.720;2023-03-13T07:59:27;3.40;;;1.80;;
75016;SDS011;63577;39.766;2.720;2023-03-13T08:01:52;5.30;;;1.80;;
75016;SDS011;63577;39.766;2.720;2023-03-13T08:04:18;3.90;;;1.90;;
75016;SDS011;63577;39.766;2.720;2023-03-13T08:06:43;4.40;;;2.00;;
75016;SDS011;63577;39.766;2.720;2023-03-13T08:09:09;10.80;;;6.30;;
75016;SDS011;63577;39.766;2.720;2023-03-13T08:11:34;6.30;;;3.20;;
75016;SDS011;63577;39.766;2.720;2023-03-13T08:14:00;4.70;;;2.10;;
75016;SDS011;63577;39.766;2.720;2023-03-13T08:16:26;4.70;;;2.30;;
75016;SDS011;63577;39.766;2.720;2023-03-13T08:18:53;5.20;;;2.80;;
75016;SDS011;63577;39.766;2.720;2023-03-13T08:21:20;5.30;;;2.70;;
75016;SDS011;63577;39.766;2.720;2023-03-13T08:23:46;5.60;;;2.80;;
75016;SDS011;63577;39.766;2.720;2023-03-13T08:26:15;5.50;;;3.00;;
75016;SDS011;63577;39.766;2.720;2023-03-13T08:28:41;6.50;;;3.20;;
75016;SDS011;63577;39.766;2.720;2023-03-13T08:33:39;6.70;;;3.60;;
75016;SDS011;63577;39.766;2.720;2023-03-13T08:36:15;6.30;;;2.70;;
75016;SDS011;63577;39.766;2.720;2023-03-13T08:38:45;7.20;;;2.60;;
75016;SDS011;63577;39.766;2.720;2023-03-13T08:41:11;5.00;;;2.50;;
75016;SDS011;63577;39.766;2.720;2023-03-13T08:43:36;5.30;;;2.70;;
75016;SDS011;63577;39.766;2.720;2023-03-13T08:46:02;11.10;;;6.00;;
75016;SDS011;63577;39.766;2.720;2023-03-13T08:48:28;8.10;;;3.90;;
75016;SDS011;63577;39.766;2.720;2023-03-13T08:51:02;10.50;;;5.60;;
75016;SDS011;63577;39.766;2.720;2023-03-13T08:53:28;24.80;;;15.00;;
75016;SDS011;63577;39.766;2.720;2023-03-13T08:55:54;16.90;;;9.70;;
75016;SDS011;63577;39.766;2.720;2023-03-13T08:58:19;16.50;;;10.20;;
75016;SDS011;63577;39.766;2.720;2023-03-13T09:00:45;6.20;;;3.40;;
75016;SDS011;63577;39.766;2.720;2023-03-13T09:03:10;6.60;;;3.90;;
75016;SDS011;63577;39.766;2.720;2023-03-13T09:05:36;5.40;;;2.80;;
75016;SDS011;63577;39.766;2.720;2023-03-13T09:08:01;7.10;;;2.80;;
75016;SDS011;63577;39.766;2.720;2023-03-13T09:10:27;4.10;;;1.80;;
75016;SDS011;63577;39.766;2.720;2023-03-13T09:12:52;5.00;;;2.30;;
75016;SDS011;63577;39.766;2.720;2023-03-13T09:15:17;4.20;;;2.10;;
75016;SDS011;63577;39.766;2.720;2023-03-13T09:17:42;3.70;;;2.00;;
75016;SDS011;63577;39.766;2.720;2023-03-13T09:20:08;5.80;;;2.60;;
75016;SDS011;63577;39.766;2.720;2023-03-13T09:22:34;5.20;;;2.80;;
75016;SDS011;63577;39.766;2.720;2023-03-13T09:24:59;5.20;;;3.20;;
75016;SDS011;63577;39.766;2.720;2023-03-13T09:27:24;6.60;;;3.40;;
75016;SDS011;63577;39.766;2.720;2023-03-13T09:29:52;4.90;;;2.60;;
75016;SDS011;63577;39.766;2.720;2023-03-13T09:32:17;5.80;;;2.60;;
75016;SDS011;63577;39.766;2.720;2023-03-13T09:34:44;5.10;;;2.10;;
75016;SDS011;63577;39.766;2.720;2023-03-13T09:37:10;4.60;;;2.20;;
75016;SDS011;63577;39.766;2.720;2023-03-13T09:39:35;4.90;;;2.10;;
75016;SDS011;63577;39.766;2.720;2023-03-13T09:42:02;5.00;;;1.70;;
75016;SDS011;63577;39.766;2.720;2023-03-13T09:44:33;4.90;;;2.00;;
75016;SDS011;63577;39.766;2.720;2023-03-13T09:47:02;4.80;;;1.80;;
75016;SDS011;63577;39.766;2.720;2023-03-13T09:49:48;6.80;;;2.00;;
75016;SDS011;63577;39.766;2.720;2023-03-13T09:52:32;4.80;;;1.50;;
75016;SDS011;63577;39.766;2.720;2023-03-13T09:59:56;4.10;;;1.60;;
75016;SDS011;63577;39.766;2.720;2023-03-13T10:02:33;3.60;;;1.50;;
75016;SDS011;63577;39.766;2.720;2023-03-13T10:05:01;5.10;;;1.60;;
75016;SDS011;63577;39.766;2.720;2023-03-13T10:07:27;4.00;;;1.60;;
75016;SDS011;63577;39.766;2.720;2023-03-13T10:09:53;3.80;;;1.60;;
75016;SDS011;63577;39.766;2.720;2023-03-13T10:12:19;4.00;;;1.40;;
75016;SDS011;63577;39.766;2.720;2023-03-13T10:19:51;3.00;;;1.40;;
75016;SDS011;63577;39.766;2.720;2023-03-13T10:22:21;6.40;;;1.60;;
75016;SDS011;63577;39.766;2.720;2023-03-13T10:24:51;4.10;;;1.50;;
75016;SDS011;63577;39.766;2.720;2023-03-13T10:27:18;3.90;;;1.40;;
75016;SDS011;63577;39.766;2.720;2023-03-13T10:29:44;3.40;;;1.10;;
75016;SDS011;63577;39.766;2.720;2023-03-13T10:32:11;3.30;;;1.20;;
75016;SDS011;63577;39.766;2.720;2023-03-13T10:34:57;3.40;;;1.50;;
75016;SDS011;63577;39.766;2.720;2023-03-13T10:37:25;4.60;;;1.50;;
75016;SDS011;63577;39.766;2.720;2023-03-13T10:39:50;3.40;;;1.50;;
75016;SDS011;63577;39.766;2.720;2023-03-13T10:44:41;4.20;;;1.30;;
75016;SDS011;63577;39.766;2.720;2023-03-13T10:47:08;3.40;;;1.30;;
75016;SDS011;63577;39.766;2.720;2023-03-13T10:49:36;3.30;;;1.50;;
75016;SDS011;63577;39.766;2.720;2023-03-13T10:52:11;3.70;;;1.50;;
75016;SDS011;63577;39.766;2.720;2023-03-13T10:54:51;4.20;;;1.80;;
75016;SDS011;63577;39.766;2.720;2023-03-13T10:57:26;3.50;;;2.00;;
75016;SDS011;63577;39.766;2.720;2023-03-13T10:59:52;4.60;;;1.90;;
75016;SDS011;63577;39.766;2.720;2023-03-13T11:04:50;5.20;;;2.90;;
75016;SDS011;63577;39.766;2.720;2023-03-13T11:07:36;3.60;;;1.20;;
75016;SDS011;63577;39.766;2.720;2023-03-13T11:12:58;3.30;;;1.20;;
75016;SDS011;63577;39.766;2.720;2023-03-13T11:15:24;2.80;;;1.20;;
75016;SDS011;63577;39.766;2.720;2023-03-13T11:18:01;5.00;;;1.30;;
75016;SDS011;63577;39.766;2.720;2023-03-13T11:20:29;4.50;;;1.50;;
75016;SDS011;63577;39.766;2.720;2023-03-13T11:57:42;4.40;;;1.90;;
75016;SDS011;63577;39.766;2.720;2023-03-13T12:00:20;3.90;;;1.70;;
75016;SDS011;63577;39.766;2.720;2023-03-13T12:02:58;4.10;;;1.90;;
75016;SDS011;63577;39.766;2.720;2023-03-13T12:05:29;5.20;;;2.10;;
75016;SDS011;63577;39.766;2.720;2023-03-13T12:08:03;5.30;;;1.30;;
75016;SDS011;63577;39.766;2.720;2023-03-13T12:10:36;5.60;;;2.10;;
75016;SDS011;63577;39.766;2.720;2023-03-13T12:13:18;4.10;;;2.10;;
75016;SDS011;63577;39.766;2.720;2023-03-13T12:15:49;5.10;;;1.90;;
75016;SDS011;63577;39.766;2.720;2023-03-13T12:18:29;3.50;;;1.70;;
75016;SDS011;63577;39.766;2.720;2023-03-13T12:21:14;3.90;;;1.70;;
75016;SDS011;63577;39.766;2.720;2023-03-13T12:23:47;5.40;;;1.40;;
75016;SDS011;63577;39.766;2.720;2023-03-13T12:26:21;4.20;;;1.30;;
75016;SDS011;63577;39.766;2.720;2023-03-13T12:28:56;4.70;;;1.70;;
75016;SDS011;63577;39.766;2.720;2023-03-13T12:34:11;3.40;;;1.40;;
75016;SDS011;63577;39.766;2.720;2023-03-13T12:36:40;4.40;;;1.50;;
75016;SDS011;63577;39.766;2.720;2023-03-13T12:39:42;3.20;;;1.50;;
75016;SDS011;63577;39.766;2.720;2023-03-13T12:42:05;5.20;;;1.30;;
75016;SDS011;63577;39.766;2.720;2023-03-13T12:44:32;3.40;;;1.20;;
75016;SDS011;63577;39.766;2.720;2023-03-13T12:59:59;3.80;;;1.30;;
75016;SDS011;63577;39.766;2.720;2023-03-13T13:02:29;3.60;;;1.20;;
75016;SDS011;63577;39.766;2.720;2023-03-13T13:04:56;3.20;;;1.10;;
75016;SDS011;63577;39.766;2.720;2023-03-13T13:07:23;4.30;;;1.20;;
75016;SDS011;63577;39.766;2.720;2023-03-13T13:12:44;3.20;;;1.30;;
75016;SDS011;63577;39.766;2.720;2023-03-13T13:20:25;5.90;;;1.50;;
75016;SDS011;63577;39.766;2.720;2023-03-13T13:22:49;4.40;;;1.60;;
75016;SDS011;63577;39.766;2.720;2023-03-13T13:27:52;2.90;;;1.10;;
75016;SDS011;63577;39.766;2.720;2023-03-13T13:32:46;4.00;;;1.50;;
75016;SDS011;63577;39.766;2.720;2023-03-13T13:37:37;4.80;;;1.40;;
75016;SDS011;63577;39.766;2.720;2023-03-13T13:40:16;2.80;;;1.20;;
75016;SDS011;63577;39.766;2.720;2023-03-13T13:42:58;4.80;;;1.20;;
75016;SDS011;63577;39.766;2.720;2023-03-13T13:50:37;3.80;;;1.40;;
75016;SDS011;63577;39.766;2.720;2023-03-13T13:56:24;4.90;;;1.70;;
75016;SDS011;63577;39.766;2.720;2023-03-13T13:58:50;4.40;;;1.60;;
75016;SDS011;63577;39.766;2.720;2023-03-13T14:01:19;20.70;;;9.20;;
75016;SDS011;63577;39.766;2.720;2023-03-13T14:03:45;6.00;;;2.50;;
75016;SDS011;63577;39.766;2.720;2023-03-13T14:06:16;26.30;;;9.40;;
75016;SDS011;63577;39.766;2.720;2023-03-13T14:08:42;11.00;;;4.30;;
75016;SDS011;63577;39.766;2.720;2023-03-13T14:13:38;12.30;;;4.20;;
75016;SDS011;63577;39.766;2.720;2023-03-13T14:16:16;10.60;;;3.80;;
75016;SDS011;63577;39.766;2.720;2023-03-13T14:18:44;12.40;;;3.30;;
75016;SDS011;63577;39.766;2.720;2023-03-13T14:21:09;9.40;;;3.30;;
75016;SDS011;63577;39.766;2.720;2023-03-13T14:28:34;15.60;;;5.60;;
75016;SDS011;63577;39.766;2.720;2023-03-13T14:31:02;7.60;;;2.30;;
75016;SDS011;63577;39.766;2.720;2023-03-13T14:33:28;8.50;;;3.20;;
75016;SDS011;63577;39.766;2.720;2023-03-13T14:35:53;6.20;;;1.90;;
75016;SDS011;63577;39.766;2.720;2023-03-13T14:38:20;14.30;;;4.60;;
75016;SDS011;63577;39.766;2.720;2023-03-13T14:40:46;25.60;;;8.20;;
75016;SDS011;63577;39.766;2.720;2023-03-13T14:45:43;22.90;;;10.30;;
75016;SDS011;63577;39.766;2.720;2023-03-13T14:50:34;14.70;;;8.40;;
75016;SDS011;63577;39.766;2.720;2023-03-13T14:53:01;8.40;;;3.00;;
75016;SDS011;63577;39.766;2.720;2023-03-13T14:55:33;17.50;;;4.60;;
75016;SDS011;63577;39.766;2.720;2023-03-13T15:00:28;8.70;;;2.40;;
75016;SDS011;63577;39.766;2.720;2023-03-13T15:05:40;10.50;;;5.50;;
75016;SDS011;63577;39.766;2.720;2023-03-13T15:08:13;6.40;;;3.20;;
75016;SDS011;63577;39.766;2.720;2023-03-13T15:10:39;7.30;;;3.60;;
75016;SDS011;63577;39.766;2.720;2023-03-13T15:15:50;15.40;;;8.20;;
75016;SDS011;63577;39.766;2.720;2023-03-13T15:18:17;10.10;;;4.40;;
75016;SDS011;63577;39.766;2.720;2023-03-13T15:20:43;7.70;;;4.10;;
75016;SDS011;63577;39.766;2.720;2023-03-13T15:23:12;5.00;;;2.20;;
75016;SDS011;63577;39.766;2.720;2023-03-13T15:25:39;24.50;;;3.70;;
75016;SDS011;63577;39.766;2.720;2023-03-13T15:28:08;5.80;;;2.60;;
75016;SDS011;63577;39.766;2.720;2023-03-13T15:30:37;4.90;;;1.50;;
75016;SDS011;63577;39.766;2.720;2023-03-13T15:33:03;26.90;;;3.40;;
75016;SDS011;63577;39.766;2.720;2023-03-13T15:35:29;4.00;;;1.40;;
75016;SDS011;63577;39.766;2.720;2023-03-13T15:37:56;4.40;;;1.30;;
75016;SDS011;63577;39.766;2.720;2023-03-13T15:40:22;3.10;;;1.10;;
75016;SDS011;63577;39.766;2.720;2023-03-13T15:42:49;3.50;;;1.20;;
75016;SDS011;63577;39.766;2.720;2023-03-13T15:45:14;6.60;;;1.40;;
75016;SDS011;63577;39.766;2.720;2023-03-13T15:47:40;3.30;;;1.00;;
75016;SDS011;63577;39.766;2.720;2023-03-13T15:50:08;2.90;;;1.00;;
75016;SDS011;63577;39.766;2.720;2023-03-13T15:52:34;4.40;;;1.00;;
75016;SDS011;63577;39.766;2.720;2023-03-13T15:55:00;4.30;;;1.50;;
75016;SDS011;63577;39.766;2.720;2023-03-13T15:57:25;2.90;;;0.90;;
75016;SDS011;63577;39.766;2.720;2023-03-13T15:59:52;4.10;;;1.10;;
75016;SDS011;63577;39.766;2.720;2023-03-13T16:02:21;3.00;;;1.00;;
75016;SDS011;63577;39.766;2.720;2023-03-13T16:04:47;3.90;;;1.80;;
75016;SDS011;63577;39.766;2.720;2023-03-13T16:07:14;2.50;;;0.90;;
75016;SDS011;63577;39.766;2.720;2023-03-13T16:09:40;2.60;;;0.90;;
75016;SDS011;63577;39.766;2.720;2023-03-13T16:12:06;5.50;;;1.10;;
75016;SDS011;63577;39.766;2.720;2023-03-13T16:14:32;3.40;;;1.10;;
75016;SDS011;63577;39.766;2.720;2023-03-13T16:16:57;3.20;;;1.30;;
75016;SDS011;63577;39.766;2.720;2023-03-13T16:19:23;3.10;;;1.10;;
75016;SDS011;63577;39.766;2.720;2023-03-13T16:21:48;4.30;;;2.10;;
75016;SDS011;63577;39.766;2.720;2023-03-13T16:24:14;5.90;;;1.90;;
75016;SDS011;63577;39.766;2.720;2023-03-13T16:26:41;3.10;;;1.10;;
75016;SDS011;63577;39.766;2.720;2023-03-13T16:29:09;3.00;;;0.90;;
75016;SDS011;63577;39.766;2.720;2023-03-13T16:31:35;3.60;;;1.20;;
75016;SDS011;63577;39.766;2.720;2023-03-13T16:34:00;3.20;;;1.00;;
75016;SDS011;63577;39.766;2.720;2023-03-13T16:36:28;3.10;;;1.00;;
75016;SDS011;63577;39.766;2.720;2023-03-13T16:38:55;2.90;;;1.00;;
75016;SDS011;63577;39.766;2.720;2023-03-13T16:41:22;3.40;;;1.60;;
75016;SDS011;63577;39.766;2.720;2023-03-13T16:43:48;5.90;;;2.80;;
75016;SDS011;63577;39.766;2.720;2023-03-13T16:46:24;3.60;;;1.00;;
75016;SDS011;63577;39.766;2.720;2023-03-13T16:48:51;3.40;;;1.10;;
75016;SDS011;63577;39.766;2.720;2023-03-13T16:53:43;3.40;;;1.30;;
75016;SDS011;63577;39.766;2.720;2023-03-13T16:58:51;3.50;;;1.40;;
75016;SDS011;63577;39.766;2.720;2023-03-13T17:01:16;2.90;;;0.90;;